Arlington, Mississippi
Current Conditions -  °F | °C
As of 12:35 AM on Thursday 29 Jan 2015 (Local Time) from K1R7 Reporting Station
Clear Clear  
Wind Chill: 46°   Ceiling: Unl
Heat Index: 48°   Visibility: NA
Dew Point: 41°   Wind: 5mph
Humidity: 76%   Direction: 190°S
Pressure: 30.22"   Gusts: NA
Location:  31.4439°N, 90.4692°W
Report Text: K1R7 290635Z AUTO 19004KT CLR 09/05 A3022 RMK AO2
Loading
Personal Weather Stations






























Interactive Weather Map New forecast layout! Learn more

10-Day Weather Forecast

Advertisements
Track Severe Weather on mobile